Time;durP1;ratioP1;P1;durP2;ratioP2;P2;SDS_P1;SDS_P2;PMS_P1;PMS_P2;Temp;Humidity;BMP_temperature;BMP_pressure;BME280_temperature;BME280_humidity;BME280_pressure;Samples;Min_cycle;Max_cycle;Signal;HPM_P1;HPM_P2
2023/12/14 00:02:08;;;;;;;1.80;1.70;;;9.00;99.90;;;;;;5087105;28;20135;-90
2023/12/14 00:04:33;;;;;;;1.75;1.65;;;9.00;99.90;;;;;;5068683;28;20036;-89
2023/12/14 00:06:59;;;;;;;1.20;1.20;;;9.00;99.90;;;;;;5066393;28;20043;-88
2023/12/14 00:09:25;;;;;;;1.70;1.60;;;9.10;99.90;;;;;;5066538;28;20040;-90
2023/12/14 00:11:50;;;;;;;1.80;1.70;;;9.10;99.90;;;;;;5072084;28;20128;-89
2023/12/14 00:14:16;;;;;;;1.30;1.30;;;9.00;99.90;;;;;;5086432;28;20048;-91
2023/12/14 00:16:42;;;;;;;1.70;1.60;;;9.00;99.90;;;;;;5086737;28;20044;-90
2023/12/14 00:19:07;;;;;;;1.60;1.50;;;9.00;99.90;;;;;;5070929;28;20267;-90
2023/12/14 00:21:33;;;;;;;1.83;1.73;;;9.10;99.90;;;;;;5074530;28;20073;-90
2023/12/14 00:23:59;;;;;;;1.70;1.60;;;9.00;99.90;;;;;;5082113;28;20035;-91
2023/12/14 00:26:24;;;;;;;1.80;1.70;;;9.10;99.90;;;;;;5085737;28;20092;-89
2023/12/14 00:28:50;;;;;;;1.60;1.50;;;9.00;99.90;;;;;;5070537;28;20047;-91
2023/12/14 00:31:17;;;;;;;1.70;1.60;;;9.00;99.90;;;;;;5071457;28;20051;-90
2023/12/14 00:33:43;;;;;;;1.30;1.30;;;9.00;99.90;;;;;;5084664;28;20044;-89
2023/12/14 00:36:08;;;;;;;1.80;1.70;;;9.00;99.90;;;;;;5083799;28;20048;-90
2023/12/14 00:38:34;;;;;;;1.70;1.60;;;9.10;99.90;;;;;;5082394;28;20091;-89
2023/12/14 00:41:00;;;;;;;1.83;1.73;;;9.00;99.90;;;;;;5085975;28;20481;-90
2023/12/14 00:43:25;;;;;;;1.90;1.80;;;9.00;99.90;;;;;;5084688;28;20052;-89
2023/12/14 00:45:52;;;;;;;1.25;1.25;;;9.00;99.90;;;;;;5087072;28;20040;-90
2023/12/14 00:48:18;;;;;;;1.90;1.80;;;9.00;99.90;;;;;;5086920;28;20052;-89
2023/12/14 00:50:43;;;;;;;1.85;1.75;;;8.90;99.90;;;;;;5071297;28;20047;-90
2023/12/14 00:53:09;;;;;;;1.75;1.65;;;9.00;99.90;;;;;;5069137;28;20164;-89
2023/12/14 00:55:35;;;;;;;1.70;1.60;;;9.00;99.90;;;;;;5085885;28;20056;-90
2023/12/14 00:58:00;;;;;;;1.92;1.83;;;9.00;99.90;;;;;;5085842;28;20051;-89
2023/12/14 01:00:26;;;;;;;1.88;1.77;;;9.00;99.90;;;;;;5071198;28;20051;-90
2023/12/14 01:02:52;;;;;;;1.70;1.60;;;9.10;99.90;;;;;;5068866;28;20039;-89
2023/12/14 01:05:17;;;;;;;1.95;1.85;;;9.10;99.90;;;;;;5085081;28;20044;-89
2023/12/14 01:07:43;;;;;;;1.25;1.25;;;9.00;99.90;;;;;;5068960;28;20485;-89
2023/12/14 01:10:09;;;;;;;1.70;1.60;;;9.10;99.90;;;;;;5069249;28;20040;-89
2023/12/14 01:12:34;;;;;;;1.65;1.55;;;9.10;99.90;;;;;;5067610;28;20047;-90
2023/12/14 01:15:00;;;;;;;1.20;1.20;;;9.10;99.90;;;;;;5084679;28;20044;-89
2023/12/14 01:17:26;;;;;;;1.70;1.60;;;9.10;99.90;;;;;;5068164;28;20044;-90
2023/12/14 01:19:52;;;;;;;1.70;1.60;;;9.20;99.90;;;;;;5086993;28;20069;-90
2023/12/14 01:22:18;;;;;;;1.80;1.70;;;9.20;99.90;;;;;;5072411;28;20792;-88
2023/12/14 01:24:43;;;;;;;1.90;1.80;;;9.20;99.90;;;;;;5085348;28;20039;-91
2023/12/14 01:27:10;;;;;;;1.80;1.70;;;9.20;99.90;;;;;;5101975;28;20089;-89
2023/12/14 01:29:35;;;;;;;1.92;1.83;;;9.20;99.90;;;;;;5080045;28;20051;-89
2023/12/14 01:32:01;;;;;;;1.90;1.80;;;9.20;99.90;;;;;;5068602;28;20036;-90
2023/12/14 01:34:27;;;;;;;2.00;1.90;;;9.20;99.90;;;;;;5087409;28;20111;-89
2023/12/14 01:36:52;;;;;;;2.10;2.00;;;9.20;99.90;;;;;;5086367;28;20040;-90
2023/12/14 01:39:18;;;;;;;2.20;2.10;;;9.00;99.90;;;;;;5068355;28;20557;-89
2023/12/14 01:41:44;;;;;;;2.00;1.90;;;9.10;99.90;;;;;;5082409;28;20071;-89
2023/12/14 01:44:09;;;;;;;2.00;1.90;;;9.10;99.90;;;;;;5069309;27;20048;-90
2023/12/14 01:46:35;;;;;;;2.10;2.00;;;9.20;99.90;;;;;;5069722;28;20605;-91
2023/12/14 01:49:01;;;;;;;2.00;1.90;;;9.00;99.90;;;;;;5084904;28;20130;-89
2023/12/14 01:51:26;;;;;;;2.00;1.90;;;9.10;99.90;;;;;;5081029;28;20114;-90
2023/12/14 01:53:52;;;;;;;2.03;1.92;;;9.10;99.90;;;;;;5068570;28;20048;-90
2023/12/14 01:56:18;;;;;;;2.20;2.10;;;9.00;99.90;;;;;;5071009;28;20043;-90
2023/12/14 01:58:44;;;;;;;2.08;1.98;;;9.00;99.90;;;;;;5085676;28;20078;-91
2023/12/14 02:01:40;;;;;;;2.95;2.80;;;9.10;99.90;;;;;;5074097;28;20035;-91
2023/12/14 02:04:10;;;;;;;2.08;1.98;;;9.00;99.90;;;;;;5066353;28;20039;-90
2023/12/14 02:06:36;;;;;;;2.00;1.90;;;9.10;99.90;;;;;;5065678;28;20134;-91
2023/12/14 02:09:02;;;;;;;1.80;1.70;;;9.10;99.90;;;;;;5067106;28;20139;-90
2023/12/14 02:11:28;;;;;;;1.98;1.88;;;9.10;99.90;;;;;;5071582;28;20559;-89
2023/12/14 02:13:53;;;;;;;2.00;1.90;;;9.10;99.90;;;;;;5067265;28;20048;-89
2023/12/14 02:16:19;;;;;;;2.25;2.15;;;9.10;99.90;;;;;;5070475;28;20039;-89
2023/12/14 02:18:45;;;;;;;2.33;2.22;;;9.20;99.90;;;;;;5087015;28;20039;-89
2023/12/14 02:21:11;;;;;;;2.22;2.13;;;9.10;99.90;;;;;;5070369;28;20105;-89
2023/12/14 02:23:46;;;;;;;2.40;2.30;;;9.20;99.90;;;;;;5087255;28;20047;-90
2023/12/14 02:26:13;;;;;;;2.30;2.20;;;9.00;99.90;;;;;;5087031;28;20120;-90
2023/12/14 02:28:38;;;;;;;2.40;2.30;;;9.10;99.90;;;;;;5070896;28;20078;-90
2023/12/14 02:31:04;;;;;;;2.20;2.10;;;9.10;99.90;;;;;;5069157;28;20071;-91
2023/12/14 02:33:30;;;;;;;2.60;2.50;;;9.10;99.90;;;;;;5079027;28;20047;-90
2023/12/14 02:35:56;;;;;;;2.53;2.42;;;9.10;99.90;;;;;;5071934;28;20039;-90
2023/12/14 02:38:21;;;;;;;2.47;2.38;;;9.10;99.90;;;;;;5104067;28;20124;-90
2023/12/14 02:40:47;;;;;;;2.53;2.42;;;9.10;99.90;;;;;;5065874;28;20044;-90
2023/12/14 02:43:13;;;;;;;2.60;2.50;;;9.00;99.90;;;;;;5089842;28;20082;-90
2023/12/14 02:45:39;;;;;;;2.70;2.60;;;8.90;99.90;;;;;;5085754;28;20047;-90
2023/12/14 02:48:05;;;;;;;2.58;2.47;;;9.00;99.90;;;;;;5085380;28;20092;-89
2023/12/14 02:50:30;;;;;;;2.72;2.58;;;9.00;99.90;;;;;;5085153;28;20056;-89
2023/12/14 02:52:56;;;;;;;2.58;2.47;;;9.10;99.90;;;;;;5068916;28;20054;-90
2023/12/14 02:55:22;;;;;;;2.60;2.50;;;9.10;99.90;;;;;;5068599;28;20543;-90
2023/12/14 02:57:47;;;;;;;2.58;2.47;;;9.00;99.90;;;;;;5070141;28;20050;-89
2023/12/14 03:00:13;;;;;;;2.72;2.63;;;9.00;99.90;;;;;;5068155;28;20077;-90
2023/12/14 03:02:39;;;;;;;2.25;2.15;;;9.00;99.90;;;;;;5068340;28;20381;-90
2023/12/14 03:05:05;;;;;;;2.70;2.60;;;9.00;99.90;;;;;;5066761;28;20064;-90
2023/12/14 03:07:31;;;;;;;3.17;2.97;;;9.00;99.90;;;;;;5067485;28;20162;-91
2023/12/14 03:09:57;;;;;;;3.00;2.80;;;8.90;99.90;;;;;;5068854;28;20142;-89
2023/12/14 03:12:22;;;;;;;2.92;2.75;;;8.90;99.90;;;;;;5066966;28;20081;-90
2023/12/14 03:14:48;;;;;;;2.55;2.45;;;8.80;99.90;;;;;;5083041;28;20046;-90
2023/12/14 03:17:15;;;;;;;2.60;2.50;;;8.90;99.90;;;;;;5084800;28;20044;-90
2023/12/14 03:19:43;;;;;;;2.35;2.25;;;8.80;99.90;;;;;;5065773;28;20039;-89
2023/12/14 03:22:10;;;;;;;1.75;1.65;;;8.80;99.90;;;;;;5072589;28;20158;-89
2023/12/14 03:24:36;;;;;;;2.03;1.92;;;8.80;99.90;;;;;;5090851;28;20791;-90
2023/12/14 03:27:03;;;;;;;1.80;1.70;;;8.90;99.90;;;;;;5088609;28;20051;-90
2023/12/14 03:29:29;;;;;;;2.13;2.03;;;8.80;99.90;;;;;;5087258;28;20573;-90
2023/12/14 03:31:58;;;;;;;2.10;2.00;;;8.90;99.90;;;;;;5072523;28;20055;-89
2023/12/14 03:34:24;;;;;;;2.15;2.05;;;8.80;99.90;;;;;;5071355;28;20047;-90
2023/12/14 03:36:50;;;;;;;2.08;1.98;;;8.90;99.90;;;;;;5072686;28;20134;-89
2023/12/14 03:39:16;;;;;;;1.95;1.85;;;8.90;99.90;;;;;;5086312;28;20044;-90
2023/12/14 03:41:42;;;;;;;2.13;2.03;;;8.90;99.90;;;;;;5074586;28;20047;-89
2023/12/14 03:44:08;;;;;;;1.95;1.85;;;8.80;99.90;;;;;;5072451;28;20032;-89
2023/12/14 03:46:35;;;;;;;2.10;2.00;;;8.80;99.90;;;;;;5090976;28;20062;-89
2023/12/14 03:49:02;;;;;;;1.73;1.63;;;8.80;99.90;;;;;;5085598;28;20048;-90
2023/12/14 03:51:27;;;;;;;1.65;1.55;;;8.90;99.90;;;;;;5086773;28;20509;-89
2023/12/14 03:53:53;;;;;;;1.67;1.58;;;8.90;99.90;;;;;;5089517;28;20111;-90
2023/12/14 03:56:19;;;;;;;2.03;1.92;;;8.90;99.90;;;;;;5086578;28;20044;-90
2023/12/14 03:58:44;;;;;;;2.10;2.00;;;9.00;99.90;;;;;;5083951;28;20082;-90
2023/12/14 04:01:20;;;;;;;2.30;2.20;;;8.80;99.90;;;;;;5066753;28;20036;-89
2023/12/14 04:03:47;;;;;;;2.10;2.00;;;8.80;99.90;;;;;;5069784;28;20126;-89
2023/12/14 04:06:13;;;;;;;2.33;2.22;;;8.90;99.90;;;;;;5089063;28;20512;-90
2023/12/14 04:08:40;;;;;;;2.30;2.20;;;8.80;99.90;;;;;;5087616;28;20047;-89
2023/12/14 04:11:06;;;;;;;2.42;2.33;;;8.90;99.90;;;;;;5091933;28;20147;-90
2023/12/14 04:13:32;;;;;;;2.22;2.13;;;8.80;99.90;;;;;;5089896;28;20176;-89
2023/12/14 04:15:57;;;;;;;2.05;1.95;;;8.80;99.90;;;;;;5068461;28;20047;-90
2023/12/14 04:18:24;;;;;;;2.53;2.42;;;8.70;99.90;;;;;;5073662;28;20071;-89
2023/12/14 04:20:51;;;;;;;2.40;2.30;;;8.70;99.90;;;;;;5070307;28;20083;-90
2023/12/14 04:23:17;;;;;;;2.10;2.00;;;8.70;99.90;;;;;;5073293;27;20858;-90
2023/12/14 04:25:42;;;;;;;2.00;1.90;;;8.70;99.90;;;;;;5071404;28;20081;-90
2023/12/14 04:28:08;;;;;;;2.00;1.90;;;8.70;99.90;;;;;;5102579;28;20051;-89
2023/12/14 04:30:34;;;;;;;1.90;1.80;;;8.60;99.90;;;;;;5108782;28;20059;-89
2023/12/14 04:32:59;;;;;;;1.80;1.70;;;8.60;99.90;;;;;;5092894;28;20020;-89
2023/12/14 04:35:25;;;;;;;1.90;1.80;;;8.60;99.90;;;;;;5091935;28;20164;-90
2023/12/14 04:37:51;;;;;;;1.77;1.67;;;8.60;99.90;;;;;;5109090;28;20039;-89
2023/12/14 04:40:16;;;;;;;1.70;1.60;;;8.60;99.90;;;;;;5088110;28;20051;-89
2023/12/14 04:42:42;;;;;;;1.20;1.20;;;8.60;99.90;;;;;;5109113;28;20031;-89
2023/12/14 04:45:09;;;;;;;1.60;1.50;;;8.60;99.90;;;;;;5107911;28;20127;-89
2023/12/14 04:47:35;;;;;;;1.70;1.60;;;8.60;99.90;;;;;;5108381;28;20040;-89
2023/12/14 04:50:02;;;;;;;1.50;1.40;;;8.50;99.90;;;;;;5089193;28;20051;-88
2023/12/14 04:52:28;;;;;;;1.20;1.20;;;8.70;99.90;;;;;;5090564;28;20044;-91
2023/12/14 04:54:54;;;;;;;1.20;1.20;;;8.60;99.90;;;;;;5089409;28;20046;-89
2023/12/14 04:57:19;;;;;;;1.70;1.60;;;8.60;99.90;;;;;;5070203;28;20123;-89
2023/12/14 04:59:45;;;;;;;1.80;1.70;;;8.50;99.90;;;;;;5084214;28;20039;-89
2023/12/14 05:02:11;;;;;;;1.92;1.83;;;8.50;99.90;;;;;;5087232;28;20043;-90
2023/12/14 05:04:36;;;;;;;1.30;1.30;;;8.50;99.90;;;;;;5086057;28;20468;-90
2023/12/14 05:07:02;;;;;;;1.92;1.83;;;8.50;99.90;;;;;;5088551;28;20040;-90
2023/12/14 05:09:28;;;;;;;2.08;1.98;;;8.50;99.90;;;;;;5102810;28;20051;-89
2023/12/14 05:11:54;;;;;;;1.70;1.60;;;8.40;99.90;;;;;;5085574;28;20040;-90
2023/12/14 05:14:19;;;;;;;2.15;2.05;;;8.40;99.90;;;;;;5087149;28;20062;-89
2023/12/14 05:16:45;;;;;;;2.30;2.20;;;8.40;99.90;;;;;;5086254;27;20094;-90
2023/12/14 05:19:12;;;;;;;2.22;2.13;;;8.40;99.90;;;;;;5085250;28;20044;-90
2023/12/14 05:21:38;;;;;;;2.13;2.03;;;8.50;99.90;;;;;;5072763;28;20127;-90
2023/12/14 05:24:04;;;;;;;1.80;1.70;;;8.50;99.90;;;;;;5071250;28;20130;-90
2023/12/14 05:26:30;;;;;;;2.10;2.00;;;8.50;99.90;;;;;;5088942;28;20040;-90
2023/12/14 05:28:57;;;;;;;2.00;1.90;;;8.50;99.90;;;;;;5088461;28;20044;-89
2023/12/14 05:31:22;;;;;;;1.73;1.63;;;8.50;99.90;;;;;;5091020;28;20142;-88
2023/12/14 05:33:48;;;;;;;2.08;1.98;;;8.50;99.90;;;;;;5071565;28;20135;-89
2023/12/14 05:36:14;;;;;;;1.90;1.80;;;8.60;99.90;;;;;;5069860;28;20047;-88
2023/12/14 05:38:41;;;;;;;2.08;1.98;;;8.70;99.90;;;;;;5083666;28;20035;-89
2023/12/14 05:41:07;;;;;;;1.80;1.70;;;8.60;99.90;;;;;;5081077;28;20088;-90
2023/12/14 05:43:33;;;;;;;1.50;1.40;;;8.60;99.90;;;;;;5066173;28;20039;-89
2023/12/14 05:45:59;;;;;;;1.70;1.60;;;8.70;99.90;;;;;;5069128;28;20047;-89
2023/12/14 05:48:27;;;;;;;1.70;1.60;;;8.60;99.90;;;;;;5084805;28;20051;-89
2023/12/14 05:50:52;;;;;;;1.70;1.60;;;8.70;99.90;;;;;;5069546;28;20092;-90
2023/12/14 05:53:18;;;;;;;1.67;1.58;;;8.70;99.90;;;;;;5086849;28;20047;-89
2023/12/14 05:55:44;;;;;;;1.70;1.60;;;8.80;99.90;;;;;;5070652;28;20058;-88
2023/12/14 05:58:10;;;;;;;1.70;1.60;;;8.80;99.90;;;;;;5088476;28;20389;-88
2023/12/14 06:00:36;;;;;;;1.90;1.80;;;8.70;99.90;;;;;;5087517;28;20048;-90
2023/12/14 06:03:02;;;;;;;1.52;1.42;;;8.60;99.90;;;;;;5084197;28;20040;-90
2023/12/14 06:05:28;;;;;;;1.90;1.80;;;8.70;99.90;;;;;;5084744;28;20048;-89
2023/12/14 06:07:53;;;;;;;1.80;1.70;;;8.60;99.90;;;;;;5087896;28;20048;-89
2023/12/14 06:10:19;;;;;;;1.83;1.73;;;8.50;99.90;;;;;;5073009;28;20134;-89
2023/12/14 06:12:45;;;;;;;1.90;1.80;;;8.60;99.90;;;;;;5069635;28;20047;-89
2023/12/14 06:15:11;;;;;;;1.80;1.70;;;8.60;99.90;;;;;;5086007;28;20040;-89
2023/12/14 06:17:37;;;;;;;1.90;1.80;;;8.70;99.90;;;;;;5085158;28;20047;-89
2023/12/14 06:20:04;;;;;;;1.73;1.63;;;8.60;99.90;;;;;;5089378;28;20476;-89
2023/12/14 06:22:29;;;;;;;1.90;1.80;;;8.60;99.90;;;;;;5086993;28;20172;-89
2023/12/14 06:24:55;;;;;;;2.10;2.00;;;8.70;99.90;;;;;;5071537;28;20057;-89
2023/12/14 06:27:26;;;;;;;2.00;1.90;;;8.60;99.90;;;;;;5069080;28;20059;-89
2023/12/14 06:29:52;;;;;;;2.00;1.90;;;8.60;99.90;;;;;;5069405;28;20040;-89
2023/12/14 06:32:17;;;;;;;1.77;1.67;;;8.60;99.90;;;;;;5069988;28;20074;-89
2023/12/14 06:34:43;;;;;;;1.90;1.80;;;8.70;99.90;;;;;;5088458;28;20071;-89
2023/12/14 06:37:09;;;;;;;1.70;1.60;;;8.60;99.90;;;;;;5068087;28;20043;-89
2023/12/14 06:39:35;;;;;;;2.13;2.03;;;8.70;99.90;;;;;;5089306;28;20093;-89
2023/12/14 06:42:01;;;;;;;1.73;1.63;;;8.50;99.90;;;;;;5085835;28;20036;-89
2023/12/14 06:44:27;;;;;;;1.33;1.33;;;8.60;99.90;;;;;;5085692;28;20040;-89
2023/12/14 06:46:54;;;;;;;1.88;1.77;;;8.60;99.90;;;;;;5084914;28;20608;-88
2023/12/14 06:49:20;;;;;;;1.70;1.60;;;8.60;99.90;;;;;;5070150;28;20052;-88
2023/12/14 06:51:46;;;;;;;1.90;1.80;;;8.70;99.90;;;;;;5087803;28;20126;-89
2023/12/14 06:54:12;;;;;;;1.38;1.35;;;8.70;99.90;;;;;;5084875;28;20123;-89
2023/12/14 06:56:37;;;;;;;2.38;2.28;;;8.60;99.90;;;;;;5085641;28;20127;-90
2023/12/14 06:59:03;;;;;;;1.90;1.80;;;8.60;99.90;;;;;;5075761;28;20502;-89
2023/12/14 07:01:29;;;;;;;1.80;1.70;;;8.60;99.90;;;;;;5089271;28;20044;-89
2023/12/14 07:03:54;;;;;;;1.58;1.48;;;8.60;99.90;;;;;;5073342;28;20071;-89
2023/12/14 07:06:21;;;;;;;2.00;1.90;;;8.70;99.90;;;;;;5072403;28;20032;-90
2023/12/14 07:08:47;;;;;;;1.63;1.52;;;8.60;99.90;;;;;;5073916;28;20051;-89
2023/12/14 07:11:13;;;;;;;2.10;2.00;;;8.60;99.90;;;;;;5089216;28;20098;-89
2023/12/14 07:13:39;;;;;;;2.28;2.17;;;8.60;99.90;;;;;;5090758;28;20126;-90
2023/12/14 07:16:10;;;;;;;2.00;1.90;;;8.50;99.90;;;;;;5090721;28;20047;-90
2023/12/14 07:18:40;;;;;;;2.08;1.98;;;8.60;99.90;;;;;;5076257;28;20122;-89
2023/12/14 07:21:06;;;;;;;2.00;1.90;;;8.50;99.90;;;;;;5074457;28;20043;-91
2023/12/14 07:23:32;;;;;;;1.90;1.80;;;8.60;99.90;;;;;;5093361;28;20043;-89
2023/12/14 07:25:58;;;;;;;1.90;1.80;;;8.70;99.90;;;;;;5090483;28;20100;-89
2023/12/14 07:28:24;;;;;;;2.00;1.90;;;8.60;99.90;;;;;;5077520;28;20500;-90
2023/12/14 07:30:50;;;;;;;2.10;2.00;;;8.60;99.90;;;;;;5089324;28;20058;-91
2023/12/14 07:33:16;;;;;;;2.10;2.00;;;8.60;99.90;;;;;;5084703;28;20050;-89
2023/12/14 07:35:42;;;;;;;2.10;2.00;;;8.70;99.90;;;;;;5113729;28;20790;-89
2023/12/14 07:38:09;;;;;;;2.10;2.00;;;8.60;99.90;;;;;;5113591;28;20088;-92
2023/12/14 07:40:35;;;;;;;2.10;2.00;;;8.60;99.90;;;;;;5093735;28;20036;-89
2023/12/14 07:43:02;;;;;;;1.90;1.80;;;8.60;99.90;;;;;;5093722;28;20041;-89
2023/12/14 07:45:28;;;;;;;1.80;1.70;;;8.70;99.90;;;;;;5093719;28;20059;-88
2023/12/14 07:47:53;;;;;;;1.92;1.83;;;8.70;99.90;;;;;;5095051;28;20034;-89
2023/12/14 07:50:19;;;;;;;2.00;1.90;;;8.70;99.90;;;;;;5105213;28;20108;-88
2023/12/14 07:52:45;;;;;;;2.22;2.13;;;8.70;99.90;;;;;;5106119;28;20043;-89
2023/12/14 07:55:13;;;;;;;2.20;2.10;;;8.70;99.90;;;;;;5080718;28;20047;-88
2023/12/14 07:57:39;;;;;;;2.03;1.92;;;8.70;99.90;;;;;;5092138;28;20051;-90
2023/12/14 08:00:05;;;;;;;2.30;2.20;;;8.80;99.90;;;;;;5089458;28;20055;-88
2023/12/14 08:02:31;;;;;;;2.28;2.17;;;8.60;99.90;;;;;;5091168;28;20042;-88
2023/12/14 08:04:57;;;;;;;2.40;2.30;;;8.70;99.90;;;;;;5088125;28;20045;-89
2023/12/14 08:07:23;;;;;;;2.20;2.10;;;8.80;99.90;;;;;;5092065;28;20066;-88
2023/12/14 08:09:48;;;;;;;2.42;2.33;;;8.80;99.90;;;;;;5068296;28;20526;-88
2023/12/14 08:12:14;;;;;;;2.42;2.33;;;8.80;99.90;;;;;;5092781;28;20051;-89
2023/12/14 08:14:43;;;;;;;2.45;2.35;;;8.80;99.90;;;;;;5092527;28;20043;-90
2023/12/14 08:17:10;;;;;;;2.58;2.47;;;8.70;99.90;;;;;;5074805;28;20043;-89
2023/12/14 08:19:36;;;;;;;2.53;2.42;;;8.70;99.90;;;;;;5092745;28;20120;-89
2023/12/14 08:22:01;;;;;;;2.85;2.72;;;8.80;99.90;;;;;;5091718;28;20124;-90
2023/12/14 08:24:27;;;;;;;2.80;2.67;;;8.80;99.90;;;;;;5074873;28;20040;-89
2023/12/14 08:26:53;;;;;;;3.00;2.80;;;8.80;99.90;;;;;;5091869;28;20180;-90
2023/12/14 08:29:18;;;;;;;2.38;2.28;;;8.80;99.90;;;;;;5090687;28;20048;-90
2023/12/14 08:31:44;;;;;;;3.25;3.05;;;8.90;99.90;;;;;;5081481;28;20036;-88
2023/12/14 08:34:10;;;;;;;3.38;3.17;;;8.90;99.90;;;;;;5074407;28;20062;-90
2023/12/14 08:36:35;;;;;;;3.53;3.33;;;8.90;99.90;;;;;;5076779;28;20038;-90
2023/12/14 08:39:01;;;;;;;3.65;3.45;;;8.90;99.90;;;;;;5074616;28;20047;-89
2023/12/14 08:41:27;;;;;;;3.15;2.95;;;8.90;99.90;;;;;;5093793;28;20039;-93
2023/12/14 08:43:55;;;;;;;3.65;3.45;;;9.00;99.90;;;;;;5095412;28;20032;-92
2023/12/14 08:46:24;;;;;;;3.85;3.65;;;8.90;99.90;;;;;;5076189;28;20126;-90
2023/12/14 08:48:50;;;;;;;4.47;4.20;;;9.00;99.90;;;;;;5075134;28;20127;-89
2023/12/14 08:51:15;;;;;;;3.95;3.75;;;8.90;99.90;;;;;;5091978;28;20197;-91
2023/12/14 08:53:41;;;;;;;4.68;4.38;;;9.00;99.90;;;;;;5074006;28;20089;-91
2023/12/14 08:56:08;;;;;;;5.25;4.95;;;8.90;99.90;;;;;;5073640;28;20522;-89
2023/12/14 08:58:35;;;;;;;5.20;4.90;;;9.00;99.90;;;;;;5089572;28;20661;-89
2023/12/14 09:01:01;;;;;;;5.70;5.35;;;8.90;99.90;;;;;;5090826;28;20098;-89
2023/12/14 09:03:27;;;;;;;5.72;5.38;;;8.90;99.90;;;;;;5070850;28;20051;-88
2023/12/14 09:05:52;;;;;;;5.50;5.18;;;8.90;99.90;;;;;;5070950;28;20050;-90
2023/12/14 09:08:18;;;;;;;5.97;5.57;;;9.00;99.90;;;;;;5081438;28;20154;-89
2023/12/14 09:10:44;;;;;;;5.85;5.47;;;9.00;99.90;;;;;;5086693;28;20039;-88
2023/12/14 09:13:11;;;;;;;6.57;6.18;;;8.90;99.90;;;;;;5090602;28;20081;-89
2023/12/14 09:15:37;;;;;;;6.15;5.75;;;8.90;99.90;;;;;;5088720;28;20135;-89
2023/12/14 09:18:02;;;;;;;6.05;5.65;;;8.80;99.90;;;;;;5089053;28;20138;-89
2023/12/14 09:20:28;;;;;;;6.05;5.65;;;8.90;99.90;;;;;;5070118;28;20044;-89
2023/12/14 09:22:54;;;;;;;5.40;5.07;;;8.90;99.90;;;;;;5091261;28;20504;-92
2023/12/14 09:25:20;;;;;;;6.15;5.75;;;9.00;99.90;;;;;;5071796;28;20048;-88
2023/12/14 09:27:46;;;;;;;5.55;5.22;;;8.90;99.90;;;;;;5089272;28;20750;-88
2023/12/14 09:30:12;;;;;;;5.75;5.40;;;9.00;99.90;;;;;;5068042;28;20079;-89
2023/12/14 09:32:39;;;;;;;5.05;4.75;;;8.90;99.90;;;;;;5072335;28;20048;-88
2023/12/14 09:35:06;;;;;;;5.70;5.35;;;9.00;99.90;;;;;;5087996;28;20069;-89
2023/12/14 09:37:32;;;;;;;5.82;5.45;;;8.90;99.90;;;;;;5089280;28;20051;-90
2023/12/14 09:39:58;;;;;;;6.25;5.85;;;8.80;99.90;;;;;;5070177;28;20500;-87
2023/12/14 09:42:23;;;;;;;5.60;5.25;;;8.80;99.90;;;;;;5088304;28;20058;-90
2023/12/14 09:44:50;;;;;;;4.55;4.25;;;9.00;99.90;;;;;;5090220;28;20039;-90
2023/12/14 09:47:19;;;;;;;5.13;4.82;;;9.10;99.90;;;;;;5071685;28;20505;-90
2023/12/14 09:49:45;;;;;;;5.50;5.18;;;9.10;99.90;;;;;;5071446;28;20055;-89
2023/12/14 09:52:11;;;;;;;5.18;4.88;;;9.10;99.90;;;;;;5072406;28;20047;-89
2023/12/14 09:54:37;;;;;;;5.68;5.32;;;9.00;99.90;;;;;;5069008;28;20593;-89
2023/12/14 09:57:03;;;;;;;6.15;5.75;;;9.10;99.90;;;;;;5087950;28;20089;-89
2023/12/14 09:59:30;;;;;;;5.80;5.43;;;9.10;99.90;;;;;;5066987;28;20051;-88
2023/12/14 10:02:10;;;;;;;6.18;5.78;;;9.10;99.90;;;;;;5071351;28;20649;-87
2023/12/14 10:04:36;;;;;;;6.05;5.65;;;9.30;99.90;;;;;;5086406;28;20039;-88
2023/12/14 10:07:06;;;;;;;5.80;5.43;;;9.30;99.90;;;;;;5088678;28;20079;-89
2023/12/14 10:09:33;;;;;;;6.22;5.82;;;9.30;99.90;;;;;;5085399;28;20311;-89
2023/12/14 10:12:05;;;;;;;6.32;5.93;;;9.30;99.90;;;;;;5069228;28;20047;-88
2023/12/14 10:14:31;;;;;;;6.95;6.50;;;9.30;99.90;;;;;;5068059;28;20564;-89
2023/12/14 10:16:57;;;;;;;7.53;7.03;;;9.20;99.90;;;;;;5085387;28;20618;-90
2023/12/14 10:19:23;;;;;;;6.72;6.32;;;9.20;99.90;;;;;;5073520;28;20080;-89
2023/12/14 10:21:50;;;;;;;6.53;6.13;;;9.20;99.90;;;;;;5069556;28;20079;-88
2023/12/14 10:24:17;;;;;;;7.10;6.65;;;9.30;99.90;;;;;;5087320;28;20039;-88
2023/12/14 10:26:45;;;;;;;6.50;6.10;;;9.30;99.90;;;;;;5071665;28;20046;-88
2023/12/14 10:29:10;;;;;;;7.47;7.00;;;9.20;99.90;;;;;;5084262;28;20031;-90
2023/12/14 10:31:39;;;;;;;6.75;6.35;;;9.00;99.90;;;;;;5073162;28;20047;-89
2023/12/14 10:34:05;;;;;;;7.43;6.93;;;9.20;99.90;;;;;;5072095;28;20559;-89
2023/12/14 10:36:32;;;;;;;6.30;5.90;;;9.20;99.90;;;;;;5091429;28;20122;-89
2023/12/14 10:38:59;;;;;;;6.63;6.22;;;9.20;99.90;;;;;;5090981;28;20052;-87
2023/12/14 10:41:25;;;;;;;7.07;6.63;;;9.20;99.90;;;;;;5089247;28;20509;-88
2023/12/14 10:43:54;;;;;;;7.63;7.13;;;9.30;99.90;;;;;;5091734;28;20043;-88
2023/12/14 10:46:20;;;;;;;6.53;6.13;;;9.30;99.90;;;;;;5073912;28;20104;-88
2023/12/14 10:48:49;;;;;;;8.07;7.57;;;9.40;99.90;;;;;;5108020;28;20095;-88
2023/12/14 10:51:17;;;;;;;7.82;7.32;;;9.20;99.90;;;;;;5072235;28;20167;-87
2023/12/14 10:53:47;;;;;;;7.57;7.10;;;9.20;99.90;;;;;;5074229;28;20460;-87
2023/12/14 10:56:13;;;;;;;7.28;6.80;;;9.40;99.90;;;;;;5074623;28;20053;-88
2023/12/14 10:58:58;;;;;;;7.70;7.20;;;9.40;99.90;;;;;;5073561;28;20040;-88
2023/12/14 11:01:24;;;;;;;7.28;6.80;;;9.40;99.90;;;;;;5092187;28;20035;-89
2023/12/14 11:03:56;;;;;;;7.80;7.30;;;9.50;99.90;;;;;;5091822;28;20390;-88
2023/12/14 11:06:26;;;;;;;7.15;6.70;;;9.40;99.90;;;;;;5071245;28;20043;-89
2023/12/14 11:08:54;;;;;;;7.68;7.20;;;9.50;99.90;;;;;;5073532;28;20066;-89
2023/12/14 11:11:20;;;;;;;8.48;7.97;;;9.30;99.90;;;;;;5072211;28;20125;-89
2023/12/14 11:13:52;;;;;;;7.25;6.80;;;9.30;99.90;;;;;;5087037;28;20086;-89
2023/12/14 11:16:21;;;;;;;8.50;7.97;;;9.50;99.90;;;;;;5065709;28;20075;-85
2023/12/14 11:18:47;;;;;;;8.27;7.78;;;9.60;99.90;;;;;;5090194;28;20055;-89
2023/12/14 11:21:22;;;;;;;8.15;7.65;;;9.60;99.90;;;;;;5089080;28;20409;-89
2023/12/14 11:23:50;;;;;;;8.27;7.78;;;9.60;99.90;;;;;;5075269;28;20065;-89
2023/12/14 11:26:24;;;;;;;8.60;8.10;;;9.60;99.90;;;;;;5074534;28;20112;-89
2023/12/14 11:28:49;;;;;;;;;;;9.60;99.90;;;;;;5089901;28;20040;-89
2023/12/14 11:31:16;;;;;;;8.55;8.02;;;9.60;99.90;;;;;;5080688;28;19957;-89
2023/12/14 11:33:44;;;;;;;7.90;7.40;;;9.60;99.90;;;;;;5096000;28;20156;-92
2023/12/14 11:36:12;;;;;;;8.65;8.13;;;9.60;99.90;;;;;;5088681;28;20126;-90
2023/12/14 11:38:38;;;;;;;8.80;8.27;;;9.60;99.90;;;;;;5092079;28;20094;-90
2023/12/14 11:41:03;;;;;;;8.43;7.82;;;9.60;99.90;;;;;;5074148;28;20043;-91
2023/12/14 11:43:29;;;;;;;8.48;7.97;;;9.60;99.90;;;;;;5092057;28;20397;-90
2023/12/14 11:45:55;;;;;;;8.18;7.68;;;9.60;99.90;;;;;;5089495;28;20039;-89
2023/12/14 11:48:21;;;;;;;8.38;7.88;;;9.60;99.90;;;;;;5092012;28;20446;-89
2023/12/14 11:50:47;;;;;;;8.45;7.95;;;9.60;99.90;;;;;;5073428;28;20082;-90
2023/12/14 11:53:13;;;;;;;8.63;8.13;;;9.60;99.90;;;;;;5074270;28;20082;-87
2023/12/14 11:55:43;;;;;;;8.77;8.20;;;9.60;99.90;;;;;;5074153;28;20039;-89
2023/12/14 11:58:13;;;;;;;7.65;7.15;;;9.60;99.90;;;;;;5072071;28;20036;-89
2023/12/14 12:00:40;;;;;;;8.30;7.80;;;9.70;99.90;;;;;;5072136;28;20447;-88
2023/12/14 12:03:15;;;;;;;7.78;7.28;;;9.60;99.90;;;;;;5089334;28;20074;-89
2023/12/14 12:05:49;;;;;;;7.70;7.20;;;9.70;99.90;;;;;;5093746;28;20445;-90
2023/12/14 12:08:20;;;;;;;8.25;7.75;;;9.70;99.90;;;;;;5075972;28;20131;-89
2023/12/14 12:10:46;;;;;;;8.40;7.90;;;9.70;99.90;;;;;;5088612;28;20433;-89
2023/12/14 12:13:17;;;;;;;7.90;7.40;;;9.60;99.90;;;;;;5076261;28;20105;-90
2023/12/14 12:15:44;;;;;;;6.88;6.47;;;9.60;99.90;;;;;;5090874;28;20039;-91
2023/12/14 12:18:11;;;;;;;8.25;7.75;;;9.60;99.90;;;;;;5075161;28;20611;-90
2023/12/14 12:20:38;;;;;;;7.70;7.20;;;9.60;99.90;;;;;;5090379;28;20046;-88
2023/12/14 12:23:04;;;;;;;8.32;7.82;;;9.60;99.90;;;;;;5073399;28;20078;-89
2023/12/14 12:25:33;;;;;;;8.00;7.50;;;9.50;99.90;;;;;;5070951;28;20078;-90
2023/12/14 12:28:00;;;;;;;7.60;7.10;;;9.50;99.90;;;;;;5091877;28;20079;-89
2023/12/14 12:30:26;;;;;;;9.50;8.90;;;9.50;99.90;;;;;;5089631;28;20085;-91
2023/12/14 12:32:52;;;;;;;8.48;7.97;;;9.50;99.90;;;;;;5075076;28;20082;-90
2023/12/14 12:35:22;;;;;;;8.88;8.30;;;9.50;99.90;;;;;;5092607;28;20075;-87
2023/12/14 12:37:53;;;;;;;8.68;8.18;;;9.50;99.90;;;;;;5077196;28;20051;-93
2023/12/14 12:40:29;;;;;;;8.70;8.15;;;9.50;99.90;;;;;;5073635;28;20088;-91
2023/12/14 12:42:58;;;;;;;8.43;7.93;;;9.40;99.90;;;;;;5090769;28;20049;-90
2023/12/14 12:45:27;;;;;;;8.10;7.60;;;9.40;99.90;;;;;;5091996;28;20043;-90
2023/12/14 12:47:53;;;;;;;8.13;7.63;;;9.40;99.90;;;;;;5092091;28;20043;-90
2023/12/14 12:50:20;;;;;;;8.38;7.88;;;9.40;99.90;;;;;;5074451;28;20071;-88
2023/12/14 12:52:48;;;;;;;8.30;7.80;;;9.40;99.90;;;;;;5074185;28;20057;-90
2023/12/14 12:55:14;;;;;;;7.38;6.90;;;9.50;99.90;;;;;;5091960;28;20047;-89